sensor_id;sensor_type;location;lat;lon;timestamp;P1;durP1;ratioP1;P2;durP2;ratioP2
13866;SDS011;7003;46.982;15.248;2022-09-06T00:00:31;7.30;;;6.75;;
13866;SDS011;7003;46.982;15.248;2022-09-06T00:02:58;7.80;;;7.10;;
13866;SDS011;7003;46.982;15.248;2022-09-06T00:05:27;7.55;;;6.90;;
13866;SDS011;7003;46.982;15.248;2022-09-06T00:07:57;8.82;;;7.97;;
13866;SDS011;7003;46.982;15.248;2022-09-06T00:10:28;8.02;;;7.25;;
13866;SDS011;7003;46.982;15.248;2022-09-06T00:13:01;8.63;;;7.82;;
13866;SDS011;7003;46.982;15.248;2022-09-06T00:15:30;8.15;;;7.45;;
13866;SDS011;7003;46.982;15.248;2022-09-06T00:17:58;9.10;;;8.20;;
13866;SDS011;7003;46.982;15.248;2022-09-06T00:20:26;9.90;;;8.90;;
13866;SDS011;7003;46.982;15.248;2022-09-06T00:22:55;8.75;;;7.93;;
13866;SDS011;7003;46.982;15.248;2022-09-06T00:25:25;8.93;;;8.02;;
13866;SDS011;7003;46.982;15.248;2022-09-06T00:27:56;9.75;;;8.88;;
13866;SDS011;7003;46.982;15.248;2022-09-06T00:30:29;9.15;;;8.35;;
13866;SDS011;7003;46.982;15.248;2022-09-06T00:33:01;9.40;;;8.57;;
13866;SDS011;7003;46.982;15.248;2022-09-06T00:35:31;8.93;;;8.02;;
13866;SDS011;7003;46.982;15.248;2022-09-06T00:37:59;10.00;;;8.48;;
13866;SDS011;7003;46.982;15.248;2022-09-06T00:40:31;11.25;;;10.13;;
13866;SDS011;7003;46.982;15.248;2022-09-06T00:43:00;10.25;;;8.10;;
13866;SDS011;7003;46.982;15.248;2022-09-06T00:45:30;12.00;;;7.95;;
13866;SDS011;7003;46.982;15.248;2022-09-06T00:47:58;9.40;;;8.40;;
13866;SDS011;7003;46.982;15.248;2022-09-06T00:50:31;8.60;;;7.80;;
13866;SDS011;7003;46.982;15.248;2022-09-06T00:52:59;8.80;;;8.07;;
13866;SDS011;7003;46.982;15.248;2022-09-06T00:55:32;8.98;;;8.18;;
13866;SDS011;7003;46.982;15.248;2022-09-06T00:58:02;9.48;;;8.57;;
13866;SDS011;7003;46.982;15.248;2022-09-06T01:00:32;10.43;;;7.70;;
13866;SDS011;7003;46.982;15.248;2022-09-06T01:03:00;8.82;;;8.13;;
13866;SDS011;7003;46.982;15.248;2022-09-06T01:05:28;9.63;;;8.80;;
13866;SDS011;7003;46.982;15.248;2022-09-06T01:08:07;7.80;;;7.10;;
13866;SDS011;7003;46.982;15.248;2022-09-06T01:10:51;7.35;;;6.47;;
13866;SDS011;7003;46.982;15.248;2022-09-06T01:13:36;7.78;;;7.07;;
13866;SDS011;7003;46.982;15.248;2022-09-06T01:16:19;8.02;;;7.30;;
13866;SDS011;7003;46.982;15.248;2022-09-06T01:19:12;9.18;;;8.25;;
13866;SDS011;7003;46.982;15.248;2022-09-06T01:22:00;8.10;;;7.40;;
13866;SDS011;7003;46.982;15.248;2022-09-06T01:24:45;7.93;;;7.22;;
13866;SDS011;7003;46.982;15.248;2022-09-06T01:27:33;10.10;;;8.30;;
13866;SDS011;7003;46.982;15.248;2022-09-06T01:30:23;10.85;;;8.95;;
13866;SDS011;7003;46.982;15.248;2022-09-06T01:32:54;9.10;;;7.97;;
13866;SDS011;7003;46.982;15.248;2022-09-06T01:35:30;9.35;;;8.43;;
13866;SDS011;7003;46.982;15.248;2022-09-06T01:38:04;8.63;;;7.80;;
13866;SDS011;7003;46.982;15.248;2022-09-06T01:40:33;9.40;;;8.13;;
13866;SDS011;7003;46.982;15.248;2022-09-06T01:43:03;9.82;;;8.55;;
13866;SDS011;7003;46.982;15.248;2022-09-06T01:45:36;9.85;;;8.02;;
13866;SDS011;7003;46.982;15.248;2022-09-06T01:48:15;7.72;;;6.88;;
13866;SDS011;7003;46.982;15.248;2022-09-06T01:50:55;11.43;;;8.10;;
13866;SDS011;7003;46.982;15.248;2022-09-06T01:56:37;6.28;;;5.72;;
13866;SDS011;7003;46.982;15.248;2022-09-06T01:59:22;7.45;;;6.75;;
13866;SDS011;7003;46.982;15.248;2022-09-06T02:02:02;8.48;;;7.65;;
13866;SDS011;7003;46.982;15.248;2022-09-06T02:04:35;7.57;;;6.95;;
13866;SDS011;7003;46.982;15.248;2022-09-06T02:07:12;9.18;;;8.30;;
13866;SDS011;7003;46.982;15.248;2022-09-06T02:09:47;7.30;;;6.70;;
13866;SDS011;7003;46.982;15.248;2022-09-06T02:12:20;7.97;;;7.00;;
13866;SDS011;7003;46.982;15.248;2022-09-06T02:14:54;9.32;;;8.15;;
13866;SDS011;7003;46.982;15.248;2022-09-06T02:17:26;8.32;;;6.95;;
13866;SDS011;7003;46.982;15.248;2022-09-06T02:20:04;8.30;;;7.13;;
13866;SDS011;7003;46.982;15.248;2022-09-06T02:22:36;8.05;;;7.35;;
13866;SDS011;7003;46.982;15.248;2022-09-06T02:25:08;6.72;;;6.15;;
13866;SDS011;7003;46.982;15.248;2022-09-06T02:27:42;6.80;;;6.20;;
13866;SDS011;7003;46.982;15.248;2022-09-06T02:30:13;7.13;;;6.50;;
13866;SDS011;7003;46.982;15.248;2022-09-06T02:32:43;8.25;;;7.55;;
13866;SDS011;7003;46.982;15.248;2022-09-06T02:35:17;8.32;;;7.50;;
13866;SDS011;7003;46.982;15.248;2022-09-06T02:37:47;8.52;;;7.65;;
13866;SDS011;7003;46.982;15.248;2022-09-06T02:40:15;7.28;;;6.68;;
13866;SDS011;7003;46.982;15.248;2022-09-06T02:42:45;7.72;;;7.03;;
13866;SDS011;7003;46.982;15.248;2022-09-06T02:45:14;8.60;;;7.72;;
13866;SDS011;7003;46.982;15.248;2022-09-06T02:47:42;7.55;;;6.85;;
13866;SDS011;7003;46.982;15.248;2022-09-06T02:50:12;9.00;;;8.10;;
13866;SDS011;7003;46.982;15.248;2022-09-06T02:52:42;10.25;;;8.30;;
13866;SDS011;7003;46.982;15.248;2022-09-06T02:55:10;7.97;;;7.28;;
13866;SDS011;7003;46.982;15.248;2022-09-06T02:57:37;8.07;;;7.38;;
13866;SDS011;7003;46.982;15.248;2022-09-06T03:00:08;8.00;;;7.30;;
13866;SDS011;7003;46.982;15.248;2022-09-06T03:02:43;8.55;;;7.70;;
13866;SDS011;7003;46.982;15.248;2022-09-06T03:05:10;10.02;;;7.43;;
13866;SDS011;7003;46.982;15.248;2022-09-06T03:07:40;8.57;;;7.78;;
13866;SDS011;7003;46.982;15.248;2022-09-06T03:10:08;8.45;;;7.63;;
13866;SDS011;7003;46.982;15.248;2022-09-06T03:12:40;9.02;;;7.85;;
13866;SDS011;7003;46.982;15.248;2022-09-06T03:15:11;10.02;;;9.02;;
13866;SDS011;7003;46.982;15.248;2022-09-06T03:17:44;9.02;;;7.97;;
13866;SDS011;7003;46.982;15.248;2022-09-06T03:20:14;9.43;;;8.45;;
13866;SDS011;7003;46.982;15.248;2022-09-06T03:22:44;7.65;;;6.85;;
13866;SDS011;7003;46.982;15.248;2022-09-06T03:25:15;7.38;;;6.70;;
13866;SDS011;7003;46.982;15.248;2022-09-06T03:27:43;7.47;;;6.78;;
13866;SDS011;7003;46.982;15.248;2022-09-06T03:30:14;8.60;;;7.20;;
13866;SDS011;7003;46.982;15.248;2022-09-06T03:32:44;9.40;;;8.57;;
13866;SDS011;7003;46.982;15.248;2022-09-06T03:35:16;9.25;;;8.32;;
13866;SDS011;7003;46.982;15.248;2022-09-06T03:37:46;10.05;;;8.35;;
13866;SDS011;7003;46.982;15.248;2022-09-06T03:40:15;8.63;;;7.85;;
13866;SDS011;7003;46.982;15.248;2022-09-06T03:42:45;8.60;;;7.85;;
13866;SDS011;7003;46.982;15.248;2022-09-06T03:45:15;10.07;;;9.18;;
13866;SDS011;7003;46.982;15.248;2022-09-06T03:47:47;8.10;;;7.40;;
13866;SDS011;7003;46.982;15.248;2022-09-06T03:50:17;7.60;;;6.90;;
13866;SDS011;7003;46.982;15.248;2022-09-06T03:52:47;9.20;;;7.47;;
13866;SDS011;7003;46.982;15.248;2022-09-06T03:55:15;8.32;;;7.53;;
13866;SDS011;7003;46.982;15.248;2022-09-06T03:57:45;7.93;;;6.45;;
13866;SDS011;7003;46.982;15.248;2022-09-06T04:00:13;7.22;;;6.53;;
13866;SDS011;7003;46.982;15.248;2022-09-06T04:02:44;8.27;;;7.50;;
13866;SDS011;7003;46.982;15.248;2022-09-06T04:05:16;7.18;;;6.57;;
13866;SDS011;7003;46.982;15.248;2022-09-06T04:07:48;7.50;;;6.82;;
13866;SDS011;7003;46.982;15.248;2022-09-06T04:10:19;8.02;;;7.32;;
13866;SDS011;7003;46.982;15.248;2022-09-06T04:12:47;8.68;;;7.85;;
13866;SDS011;7003;46.982;15.248;2022-09-06T04:15:18;7.78;;;7.00;;
13866;SDS011;7003;46.982;15.248;2022-09-06T04:17:49;8.15;;;7.35;;
13866;SDS011;7003;46.982;15.248;2022-09-06T04:20:17;8.02;;;7.32;;
13866;SDS011;7003;46.982;15.248;2022-09-06T04:22:44;7.95;;;7.03;;
13866;SDS011;7003;46.982;15.248;2022-09-06T04:25:12;7.22;;;6.63;;
13866;SDS011;7003;46.982;15.248;2022-09-06T04:27:41;9.27;;;8.38;;
13866;SDS011;7003;46.982;15.248;2022-09-06T04:30:10;9.07;;;7.22;;
13866;SDS011;7003;46.982;15.248;2022-09-06T04:32:39;9.07;;;8.25;;
13866;SDS011;7003;46.982;15.248;2022-09-06T04:35:12;9.80;;;7.68;;
13866;SDS011;7003;46.982;15.248;2022-09-06T04:37:41;9.90;;;8.88;;
13866;SDS011;7003;46.982;15.248;2022-09-06T04:40:09;8.57;;;7.85;;
13866;SDS011;7003;46.982;15.248;2022-09-06T04:42:42;8.77;;;7.57;;
13866;SDS011;7003;46.982;15.248;2022-09-06T04:45:17;7.93;;;7.15;;
13866;SDS011;7003;46.982;15.248;2022-09-06T04:47:54;8.05;;;7.25;;
13866;SDS011;7003;46.982;15.248;2022-09-06T04:50:24;8.45;;;7.65;;
13866;SDS011;7003;46.982;15.248;2022-09-06T04:53:00;8.57;;;7.65;;
13866;SDS011;7003;46.982;15.248;2022-09-06T04:55:31;8.77;;;7.90;;
13866;SDS011;7003;46.982;15.248;2022-09-06T04:57:59;7.40;;;6.70;;
13866;SDS011;7003;46.982;15.248;2022-09-06T05:00:31;7.90;;;7.13;;
13866;SDS011;7003;46.982;15.248;2022-09-06T05:03:09;10.38;;;8.25;;
13866;SDS011;7003;46.982;15.248;2022-09-06T05:05:39;8.00;;;7.30;;
13866;SDS011;7003;46.982;15.248;2022-09-06T05:08:07;10.10;;;9.10;;
13866;SDS011;7003;46.982;15.248;2022-09-06T05:10:36;8.55;;;7.70;;
13866;SDS011;7003;46.982;15.248;2022-09-06T05:13:04;8.18;;;7.43;;
13866;SDS011;7003;46.982;15.248;2022-09-06T05:15:33;10.65;;;7.45;;
13866;SDS011;7003;46.982;15.248;2022-09-06T05:18:03;8.00;;;7.20;;
13866;SDS011;7003;46.982;15.248;2022-09-06T05:20:36;7.97;;;7.28;;
13866;SDS011;7003;46.982;15.248;2022-09-06T05:23:09;8.27;;;7.45;;
13866;SDS011;7003;46.982;15.248;2022-09-06T05:25:38;7.93;;;7.18;;
13866;SDS011;7003;46.982;15.248;2022-09-06T05:28:06;8.30;;;7.50;;
13866;SDS011;7003;46.982;15.248;2022-09-06T05:30:37;7.90;;;7.18;;
13866;SDS011;7003;46.982;15.248;2022-09-06T05:33:09;8.77;;;7.88;;
13866;SDS011;7003;46.982;15.248;2022-09-06T05:35:40;8.93;;;8.13;;
13866;SDS011;7003;46.982;15.248;2022-09-06T05:38:09;9.43;;;8.32;;
13866;SDS011;7003;46.982;15.248;2022-09-06T05:40:38;8.82;;;8.02;;
13866;SDS011;7003;46.982;15.248;2022-09-06T05:43:26;8.98;;;8.18;;
13866;SDS011;7003;46.982;15.248;2022-09-06T05:45:59;8.85;;;7.93;;
13866;SDS011;7003;46.982;15.248;2022-09-06T05:48:28;9.98;;;8.98;;
13866;SDS011;7003;46.982;15.248;2022-09-06T05:51:02;12.15;;;9.43;;
13866;SDS011;7003;46.982;15.248;2022-09-06T05:53:33;10.25;;;9.25;;
13866;SDS011;7003;46.982;15.248;2022-09-06T05:56:02;10.13;;;9.07;;
13866;SDS011;7003;46.982;15.248;2022-09-06T05:58:36;9.57;;;8.68;;
13866;SDS011;7003;46.982;15.248;2022-09-06T06:01:06;10.00;;;9.00;;
13866;SDS011;7003;46.982;15.248;2022-09-06T06:03:49;9.85;;;8.38;;
13866;SDS011;7003;46.982;15.248;2022-09-06T06:06:21;8.82;;;7.65;;
13866;SDS011;7003;46.982;15.248;2022-09-06T06:08:50;8.32;;;7.53;;
13866;SDS011;7003;46.982;15.248;2022-09-06T06:11:19;9.40;;;8.45;;
13866;SDS011;7003;46.982;15.248;2022-09-06T06:13:49;8.65;;;7.75;;
13866;SDS011;7003;46.982;15.248;2022-09-06T06:16:18;7.82;;;7.13;;
13866;SDS011;7003;46.982;15.248;2022-09-06T06:18:47;7.38;;;6.68;;
13866;SDS011;7003;46.982;15.248;2022-09-06T06:21:17;10.52;;;7.65;;
13866;SDS011;7003;46.982;15.248;2022-09-06T06:23:50;7.80;;;7.03;;
13866;SDS011;7003;46.982;15.248;2022-09-06T06:26:22;8.80;;;7.93;;
13866;SDS011;7003;46.982;15.248;2022-09-06T06:28:53;8.40;;;7.50;;
13866;SDS011;7003;46.982;15.248;2022-09-06T06:31:25;7.15;;;6.50;;
13866;SDS011;7003;46.982;15.248;2022-09-06T06:33:52;8.57;;;7.78;;
13866;SDS011;7003;46.982;15.248;2022-09-06T06:36:22;9.02;;;8.13;;
13866;SDS011;7003;46.982;15.248;2022-09-06T06:38:52;8.77;;;7.88;;
13866;SDS011;7003;46.982;15.248;2022-09-06T06:41:21;7.90;;;7.22;;
13866;SDS011;7003;46.982;15.248;2022-09-06T06:43:51;9.25;;;8.13;;
13866;SDS011;7003;46.982;15.248;2022-09-06T06:46:21;8.45;;;7.65;;
13866;SDS011;7003;46.982;15.248;2022-09-06T06:48:50;10.73;;;8.70;;
13866;SDS011;7003;46.982;15.248;2022-09-06T06:51:24;9.10;;;8.20;;
13866;SDS011;7003;46.982;15.248;2022-09-06T06:53:55;8.23;;;6.93;;
13866;SDS011;7003;46.982;15.248;2022-09-06T06:56:28;7.93;;;7.13;;
13866;SDS011;7003;46.982;15.248;2022-09-06T06:59:00;7.15;;;6.57;;
13866;SDS011;7003;46.982;15.248;2022-09-06T07:01:32;8.02;;;7.32;;
13866;SDS011;7003;46.982;15.248;2022-09-06T07:04:02;8.93;;;8.07;;
13866;SDS011;7003;46.982;15.248;2022-09-06T07:06:46;7.78;;;7.07;;
13866;SDS011;7003;46.982;15.248;2022-09-06T07:09:16;9.00;;;8.20;;
13866;SDS011;7003;46.982;15.248;2022-09-06T07:11:47;7.70;;;7.10;;
13866;SDS011;7003;46.982;15.248;2022-09-06T07:14:17;8.02;;;7.22;;
13866;SDS011;7003;46.982;15.248;2022-09-06T07:16:50;8.45;;;7.65;;
13866;SDS011;7003;46.982;15.248;2022-09-06T07:19:25;7.38;;;6.68;;
13866;SDS011;7003;46.982;15.248;2022-09-06T07:21:54;6.82;;;6.22;;
13866;SDS011;7003;46.982;15.248;2022-09-06T07:24:23;8.63;;;7.70;;
13866;SDS011;7003;46.982;15.248;2022-09-06T07:26:54;7.38;;;6.68;;
13866;SDS011;7003;46.982;15.248;2022-09-06T07:29:22;8.25;;;7.30;;
13866;SDS011;7003;46.982;15.248;2022-09-06T07:31:53;7.50;;;6.80;;
13866;SDS011;7003;46.982;15.248;2022-09-06T07:34:22;7.90;;;7.20;;
13866;SDS011;7003;46.982;15.248;2022-09-06T07:36:55;8.32;;;7.53;;
13866;SDS011;7003;46.982;15.248;2022-09-06T07:39:25;7.70;;;7.00;;
13866;SDS011;7003;46.982;15.248;2022-09-06T07:41:53;8.27;;;7.47;;
13866;SDS011;7003;46.982;15.248;2022-09-06T07:44:24;8.15;;;7.35;;
13866;SDS011;7003;46.982;15.248;2022-09-06T07:46:53;9.13;;;6.63;;
13866;SDS011;7003;46.982;15.248;2022-09-06T07:49:23;8.63;;;6.93;;
13866;SDS011;7003;46.982;15.248;2022-09-06T07:51:55;7.63;;;6.93;;
13866;SDS011;7003;46.982;15.248;2022-09-06T07:54:27;8.05;;;7.35;;
13866;SDS011;7003;46.982;15.248;2022-09-06T07:56:55;7.38;;;6.63;;
13866;SDS011;7003;46.982;15.248;2022-09-06T07:59:25;8.65;;;7.65;;
13866;SDS011;7003;46.982;15.248;2022-09-06T08:01:53;8.45;;;7.63;;
13866;SDS011;7003;46.982;15.248;2022-09-06T08:04:23;7.45;;;6.75;;
13866;SDS011;7003;46.982;15.248;2022-09-06T08:06:51;9.10;;;8.30;;
13866;SDS011;7003;46.982;15.248;2022-09-06T08:09:22;8.20;;;7.55;;
13866;SDS011;7003;46.982;15.248;2022-09-06T08:11:51;8.63;;;7.82;;
13866;SDS011;7003;46.982;15.248;2022-09-06T08:14:18;8.23;;;7.53;;
13866;SDS011;7003;46.982;15.248;2022-09-06T08:16:49;8.20;;;7.53;;
13866;SDS011;7003;46.982;15.248;2022-09-06T08:19:17;8.68;;;7.88;;
13866;SDS011;7003;46.982;15.248;2022-09-06T08:21:45;9.63;;;8.73;;
13866;SDS011;7003;46.982;15.248;2022-09-06T08:24:14;8.50;;;7.70;;
13866;SDS011;7003;46.982;15.248;2022-09-06T08:26:47;8.13;;;7.45;;
13866;SDS011;7003;46.982;15.248;2022-09-06T08:29:17;8.73;;;7.93;;
13866;SDS011;7003;46.982;15.248;2022-09-06T08:31:47;8.90;;;8.07;;
13866;SDS011;7003;46.982;15.248;2022-09-06T08:34:15;7.38;;;6.78;;
13866;SDS011;7003;46.982;15.248;2022-09-06T08:36:43;8.70;;;8.00;;
13866;SDS011;7003;46.982;15.248;2022-09-06T08:39:11;8.38;;;7.65;;
13866;SDS011;7003;46.982;15.248;2022-09-06T08:41:44;8.52;;;7.68;;
13866;SDS011;7003;46.982;15.248;2022-09-06T08:44:17;9.00;;;8.13;;
13866;SDS011;7003;46.982;15.248;2022-09-06T08:46:51;8.85;;;8.05;;
13866;SDS011;7003;46.982;15.248;2022-09-06T08:49:23;8.73;;;7.72;;
13866;SDS011;7003;46.982;15.248;2022-09-06T08:54:52;8.65;;;7.78;;
13866;SDS011;7003;46.982;15.248;2022-09-06T08:57:37;8.30;;;7.55;;
13866;SDS011;7003;46.982;15.248;2022-09-06T09:00:12;8.80;;;7.88;;
13866;SDS011;7003;46.982;15.248;2022-09-06T09:02:43;8.32;;;7.63;;
13866;SDS011;7003;46.982;15.248;2022-09-06T09:05:18;8.63;;;7.82;;
13866;SDS011;7003;46.982;15.248;2022-09-06T09:07:57;9.00;;;8.20;;
13866;SDS011;7003;46.982;15.248;2022-09-06T09:10:33;9.95;;;7.82;;
13866;SDS011;7003;46.982;15.248;2022-09-06T09:13:14;8.13;;;7.32;;
13866;SDS011;7003;46.982;15.248;2022-09-06T09:15:51;8.02;;;7.32;;
13866;SDS011;7003;46.982;15.248;2022-09-06T09:18:21;9.43;;;7.93;;
13866;SDS011;7003;46.982;15.248;2022-09-06T09:20:51;9.68;;;8.48;;
13866;SDS011;7003;46.982;15.248;2022-09-06T09:23:20;9.15;;;8.32;;
13866;SDS011;7003;46.982;15.248;2022-09-06T09:25:49;8.23;;;7.40;;
13866;SDS011;7003;46.982;15.248;2022-09-06T09:28:21;8.52;;;7.72;;
13866;SDS011;7003;46.982;15.248;2022-09-06T09:30:51;9.18;;;8.30;;
13866;SDS011;7003;46.982;15.248;2022-09-06T09:33:24;8.05;;;7.40;;
13866;SDS011;7003;46.982;15.248;2022-09-06T09:35:57;7.38;;;6.68;;
13866;SDS011;7003;46.982;15.248;2022-09-06T09:38:26;7.53;;;6.82;;
13866;SDS011;7003;46.982;15.248;2022-09-06T09:41:00;7.78;;;7.18;;
13866;SDS011;7003;46.982;15.248;2022-09-06T09:43:32;8.55;;;7.78;;
13866;SDS011;7003;46.982;15.248;2022-09-06T09:46:12;9.45;;;7.50;;
13866;SDS011;7003;46.982;15.248;2022-09-06T09:49:01;8.20;;;7.50;;
13866;SDS011;7003;46.982;15.248;2022-09-06T09:51:34;6.68;;;6.18;;
13866;SDS011;7003;46.982;15.248;2022-09-06T09:54:08;7.75;;;7.00;;
13866;SDS011;7003;46.982;15.248;2022-09-06T09:56:43;7.32;;;6.72;;
13866;SDS011;7003;46.982;15.248;2022-09-06T09:59:18;9.02;;;8.13;;
13866;SDS011;7003;46.982;15.248;2022-09-06T10:01:48;7.93;;;7.13;;
13866;SDS011;7003;46.982;15.248;2022-09-06T10:04:20;6.97;;;6.38;;
13866;SDS011;7003;46.982;15.248;2022-09-06T10:07:07;7.55;;;6.85;;
13866;SDS011;7003;46.982;15.248;2022-09-06T10:09:41;7.18;;;6.68;;
13866;SDS011;7003;46.982;15.248;2022-09-06T10:12:15;7.88;;;7.10;;
13866;SDS011;7003;46.982;15.248;2022-09-06T10:14:48;7.32;;;6.72;;
13866;SDS011;7003;46.982;15.248;2022-09-06T10:17:17;8.18;;;7.38;;
13866;SDS011;7003;46.982;15.248;2022-09-06T10:19:47;9.02;;;8.23;;
13866;SDS011;7003;46.982;15.248;2022-09-06T10:22:20;8.65;;;6.60;;
13866;SDS011;7003;46.982;15.248;2022-09-06T10:24:57;6.28;;;5.68;;
13866;SDS011;7003;46.982;15.248;2022-09-06T10:30:55;6.38;;;5.80;;
13866;SDS011;7003;46.982;15.248;2022-09-06T10:33:56;7.13;;;6.30;;
13866;SDS011;7003;46.982;15.248;2022-09-06T10:36:41;8.77;;;7.97;;
13866;SDS011;7003;46.982;15.248;2022-09-06T10:39:16;7.38;;;6.72;;
13866;SDS011;7003;46.982;15.248;2022-09-06T10:42:04;6.93;;;6.07;;
13866;SDS011;7003;46.982;15.248;2022-09-06T10:44:50;7.78;;;7.07;;
13866;SDS011;7003;46.982;15.248;2022-09-06T10:47:33;6.75;;;6.15;;
13866;SDS011;7003;46.982;15.248;2022-09-06T10:50:16;7.60;;;6.90;;
13866;SDS011;7003;46.982;15.248;2022-09-06T10:52:47;6.88;;;6.28;;
13866;SDS011;7003;46.982;15.248;2022-09-06T10:55:21;11.25;;;8.25;;
13866;SDS011;7003;46.982;15.248;2022-09-06T10:57:52;9.07;;;8.18;;
13866;SDS011;7003;46.982;15.248;2022-09-06T11:00:32;8.02;;;7.28;;
13866;SDS011;7003;46.982;15.248;2022-09-06T11:03:09;8.43;;;7.72;;
13866;SDS011;7003;46.982;15.248;2022-09-06T11:05:43;7.13;;;6.53;;
13866;SDS011;7003;46.982;15.248;2022-09-06T11:08:20;7.22;;;6.57;;
13866;SDS011;7003;46.982;15.248;2022-09-06T11:10:53;7.57;;;6.88;;
13866;SDS011;7003;46.982;15.248;2022-09-06T11:13:25;7.20;;;6.50;;
13866;SDS011;7003;46.982;15.248;2022-09-06T11:16:07;7.28;;;6.57;;
13866;SDS011;7003;46.982;15.248;2022-09-06T11:18:45;7.35;;;6.57;;
13866;SDS011;7003;46.982;15.248;2022-09-06T11:21:35;8.00;;;7.30;;
13866;SDS011;7003;46.982;15.248;2022-09-06T11:24:26;7.00;;;6.40;;
13866;SDS011;7003;46.982;15.248;2022-09-06T11:27:08;7.18;;;6.57;;
13866;SDS011;7003;46.982;15.248;2022-09-06T11:29:44;6.97;;;6.38;;
13866;SDS011;7003;46.982;15.248;2022-09-06T11:32:26;7.40;;;6.70;;
13866;SDS011;7003;46.982;15.248;2022-09-06T11:35:03;6.13;;;5.63;;
13866;SDS011;7003;46.982;15.248;2022-09-06T11:37:37;6.43;;;5.82;;
13866;SDS011;7003;46.982;15.248;2022-09-06T11:40:13;9.55;;;6.70;;
13866;SDS011;7003;46.982;15.248;2022-09-06T11:45:41;6.80;;;6.22;;
13866;SDS011;7003;46.982;15.248;2022-09-06T11:48:28;6.90;;;6.25;;
13866;SDS011;7003;46.982;15.248;2022-09-06T11:51:23;6.82;;;6.22;;
13866;SDS011;7003;46.982;15.248;2022-09-06T11:54:05;7.20;;;6.50;;
13866;SDS011;7003;46.982;15.248;2022-09-06T11:56:50;7.00;;;6.40;;
13866;SDS011;7003;46.982;15.248;2022-09-06T11:59:33;7.78;;;6.95;;
13866;SDS011;7003;46.982;15.248;2022-09-06T12:05:10;7.47;;;6.82;;
13866;SDS011;7003;46.982;15.248;2022-09-06T12:10:58;7.35;;;6.32;;
13866;SDS011;7003;46.982;15.248;2022-09-06T12:13:52;6.85;;;6.28;;
13866;SDS011;7003;46.982;15.248;2022-09-06T12:17:16;8.00;;;7.20;;
13866;SDS011;7003;46.982;15.248;2022-09-06T12:19:43;6.85;;;6.25;;
13866;SDS011;7003;46.982;15.248;2022-09-06T12:28:26;6.88;;;6.25;;
13866;SDS011;7003;46.982;15.248;2022-09-06T12:33:53;8.07;;;7.38;;
13866;SDS011;7003;46.982;15.248;2022-09-06T12:36:24;8.15;;;7.35;;
13866;SDS011;7003;46.982;15.248;2022-09-06T12:38:56;7.20;;;6.60;;
13866;SDS011;7003;46.982;15.248;2022-09-06T12:41:27;7.80;;;7.10;;
13866;SDS011;7003;46.982;15.248;2022-09-06T12:43:58;7.50;;;6.80;;
13866;SDS011;7003;46.982;15.248;2022-09-06T12:46:30;6.88;;;6.28;;
13866;SDS011;7003;46.982;15.248;2022-09-06T12:49:00;6.85;;;6.25;;
13866;SDS011;7003;46.982;15.248;2022-09-06T12:51:29;6.90;;;6.30;;
13866;SDS011;7003;46.982;15.248;2022-09-06T12:53:58;7.03;;;6.32;;
13866;SDS011;7003;46.982;15.248;2022-09-06T12:56:30;7.03;;;6.53;;
13866;SDS011;7003;46.982;15.248;2022-09-06T12:59:10;7.43;;;6.72;;
13866;SDS011;7003;46.982;15.248;2022-09-06T13:01:44;8.40;;;7.60;;
13866;SDS011;7003;46.982;15.248;2022-09-06T13:04:20;6.43;;;5.80;;
13866;SDS011;7003;46.982;15.248;2022-09-06T13:06:53;6.82;;;6.22;;
13866;SDS011;7003;46.982;15.248;2022-09-06T13:09:22;8.70;;;7.70;;
13866;SDS011;7003;46.982;15.248;2022-09-06T13:11:58;7.65;;;7.03;;
13866;SDS011;7003;46.982;15.248;2022-09-06T13:14:35;7.80;;;7.10;;
13866;SDS011;7003;46.982;15.248;2022-09-06T13:17:03;7.53;;;6.85;;
13866;SDS011;7003;46.982;15.248;2022-09-06T13:19:32;8.20;;;6.57;;
13866;SDS011;7003;46.982;15.248;2022-09-06T13:22:01;7.07;;;6.38;;
13866;SDS011;7003;46.982;15.248;2022-09-06T13:24:40;7.43;;;6.78;;
13866;SDS011;7003;46.982;15.248;2022-09-06T13:27:23;5.50;;;5.03;;
13866;SDS011;7003;46.982;15.248;2022-09-06T13:29:55;7.00;;;6.30;;
13866;SDS011;7003;46.982;15.248;2022-09-06T13:32:25;6.63;;;6.05;;
13866;SDS011;7003;46.982;15.248;2022-09-06T13:34:53;6.93;;;6.32;;
13866;SDS011;7003;46.982;15.248;2022-09-06T13:37:26;7.10;;;6.45;;
13866;SDS011;7003;46.982;15.248;2022-09-06T13:39:55;7.65;;;7.05;;
13866;SDS011;7003;46.982;15.248;2022-09-06T13:42:28;7.00;;;6.32;;
13866;SDS011;7003;46.982;15.248;2022-09-06T13:45:09;6.43;;;5.82;;
13866;SDS011;7003;46.982;15.248;2022-09-06T13:47:48;8.52;;;6.18;;
13866;SDS011;7003;46.982;15.248;2022-09-06T13:50:19;6.53;;;6.03;;
13866;SDS011;7003;46.982;15.248;2022-09-06T13:52:56;6.45;;;5.95;;
13866;SDS011;7003;46.982;15.248;2022-09-06T13:55:27;6.47;;;5.88;;
13866;SDS011;7003;46.982;15.248;2022-09-06T13:57:59;5.75;;;5.25;;
13866;SDS011;7003;46.982;15.248;2022-09-06T14:00:28;7.05;;;6.35;;
13866;SDS011;7003;46.982;15.248;2022-09-06T14:02:59;6.82;;;6.18;;
13866;SDS011;7003;46.982;15.248;2022-09-06T14:05:28;7.40;;;6.85;;
13866;SDS011;7003;46.982;15.248;2022-09-06T14:07:59;6.00;;;5.50;;
13866;SDS011;7003;46.982;15.248;2022-09-06T14:10:27;6.75;;;6.07;;
13866;SDS011;7003;46.982;15.248;2022-09-06T14:12:55;6.45;;;5.88;;
13866;SDS011;7003;46.982;15.248;2022-09-06T14:15:24;7.65;;;5.28;;
13866;SDS011;7003;46.982;15.248;2022-09-06T14:17:55;7.72;;;5.70;;
13866;SDS011;7003;46.982;15.248;2022-09-06T14:20:25;6.60;;;6.00;;
13866;SDS011;7003;46.982;15.248;2022-09-06T14:22:56;6.30;;;5.75;;
13866;SDS011;7003;46.982;15.248;2022-09-06T14:25:26;5.72;;;5.22;;
13866;SDS011;7003;46.982;15.248;2022-09-06T14:27:54;6.07;;;5.47;;
13866;SDS011;7003;46.982;15.248;2022-09-06T14:30:22;6.20;;;5.70;;
13866;SDS011;7003;46.982;15.248;2022-09-06T14:32:52;6.75;;;6.15;;
13866;SDS011;7003;46.982;15.248;2022-09-06T14:35:20;6.22;;;5.72;;
13866;SDS011;7003;46.982;15.248;2022-09-06T14:37:50;6.07;;;5.57;;
13866;SDS011;7003;46.982;15.248;2022-09-06T14:40:24;6.43;;;5.82;;
13866;SDS011;7003;46.982;15.248;2022-09-06T14:42:55;6.75;;;6.15;;
13866;SDS011;7003;46.982;15.248;2022-09-06T14:45:25;6.82;;;6.28;;
13866;SDS011;7003;46.982;15.248;2022-09-06T14:47:53;6.80;;;6.20;;
13866;SDS011;7003;46.982;15.248;2022-09-06T14:50:22;7.50;;;6.90;;
13866;SDS011;7003;46.982;15.248;2022-09-06T14:52:52;7.88;;;7.07;;
13866;SDS011;7003;46.982;15.248;2022-09-06T14:55:23;7.30;;;6.47;;
13866;SDS011;7003;46.982;15.248;2022-09-06T14:57:53;7.35;;;6.75;;
13866;SDS011;7003;46.982;15.248;2022-09-06T15:00:25;6.70;;;6.20;;
13866;SDS011;7003;46.982;15.248;2022-09-06T15:02:54;6.13;;;5.63;;
13866;SDS011;7003;46.982;15.248;2022-09-06T15:05:22;6.90;;;6.22;;
13866;SDS011;7003;46.982;15.248;2022-09-06T15:07:51;7.63;;;6.57;;
13866;SDS011;7003;46.982;15.248;2022-09-06T15:10:19;7.20;;;6.60;;
13866;SDS011;7003;46.982;15.248;2022-09-06T15:12:47;7.47;;;6.80;;
13866;SDS011;7003;46.982;15.248;2022-09-06T15:15:17;7.35;;;6.70;;
13866;SDS011;7003;46.982;15.248;2022-09-06T15:17:47;6.40;;;5.90;;
13866;SDS011;7003;46.982;15.248;2022-09-06T15:20:15;7.40;;;6.70;;
13866;SDS011;7003;46.982;15.248;2022-09-06T15:22:45;7.20;;;6.60;;
13866;SDS011;7003;46.982;15.248;2022-09-06T15:25:17;6.90;;;6.32;;
13866;SDS011;7003;46.982;15.248;2022-09-06T15:27:45;6.88;;;6.28;;
13866;SDS011;7003;46.982;15.248;2022-09-06T15:30:17;6.63;;;6.07;;
13866;SDS011;7003;46.982;15.248;2022-09-06T15:32:49;6.80;;;6.20;;
13866;SDS011;7003;46.982;15.248;2022-09-06T15:35:19;7.50;;;6.80;;
13866;SDS011;7003;46.982;15.248;2022-09-06T15:37:48;7.68;;;6.97;;
13866;SDS011;7003;46.982;15.248;2022-09-06T15:40:16;7.68;;;6.97;;
13866;SDS011;7003;46.982;15.248;2022-09-06T15:42:49;12.98;;;7.70;;
13866;SDS011;7003;46.982;15.248;2022-09-06T15:45:18;7.13;;;6.50;;
13866;SDS011;7003;46.982;15.248;2022-09-06T15:47:46;7.97;;;7.20;;